Weather at Cooks Landing Airport

Public forecast

Using degrees Fahrenheit for public forecast. Weather courtesy of forecast.io.

Closest aviation weather report (METAR) to Cooks Landing Airport

Closest report is Anoka County-Blaine (Janes Field) Airport, 5.9 nm (11.0 km) S.

2024/07/13 18:55 (retrieved 59 minutes ago)

KANE 131855Z 00000KT 10SM -RA SCT013 24/22 A2997 RMK E33

Closest aviation forecast (TAF) to Cooks Landing Airport

Closest forecast is Minneapolis–Saint Paul International Airport / Wold–Chamberlain Field, 21.8 nm (40.4 km) S.

2024/07/13 19:22 Ammendment (retrieved 32 minutes ago)

TAF AMD KMSP 131920Z 1319/1424 16011KT P6SM VCTS SCT040CB BKN080 TEMPO 1319/1321 28010G18KT 1SM -TSRA BR BKN035CB FM132100 19010KT P6SM BKN050 FM140000 18008KT P6SM VCSH BKN050 PROB30 1401/1405 4SM -TSRA BR BKN035CB FM140500 21008KT P6SM SCT080 FM140800 VRB05KT P6SM SCT200 FM141500 35005KT P6SM SCT200